Airfield :







YOU CAN JOIN US ON...

 
LOGIN :

Register | Disclaimer

   EN    FR    IT 

 









Legend :    VFR   Marginal VFR   IFR   Intensive IFR   Very Intensive IFR
Visi :
Ceiling :
>= 8 km
>= 3000ft
5 to 8 km
1000 to 3000 ft
1500m to 5 km
500 to 1000 ft
800 to 1500m
200 to 500 ft
< 800m
< 200 ft
Symbols :   Thunderstorms  Fog  Heavy snow  Heavy precipitations  Wind > 20 kt







- Airport Elevation : 129 ft
- IATA code : YVP


CYVP - Kuujjuak

CURRENT METAR :
  • 220100Z 21006KT 12SM -RA FEW012 SCT028 BKN048 OVC085 06/05 A2980 RMK SF1SC3SC3AC1 SLP095

EXPIRED METARs :
  • 220000Z 22007KT 15SM -RA FEW011 BKN028 BKN056 OVC090 06/05 A2981 RMK SF1SC5SC2AC1 SF TR PRESFR SLP100
  • 212300Z 23007KT 12SM -RA FEW018 BKN031 BKN060 OVC085 06/05 A2985 RMK SC2SC4SC1AC1 SLP112

TAF TAF CYVP
Valid from the 22 at 00:00 until the 22 at 12:00 UTC


212338Z 2200/2212 23007KT P6SM BKN030 BKN080
TEMPO 2200/2204 P6SM -SHRA BKN020 OVC030
FM220400 15008KT P6SM OVC030
TEMPO 2204/2209 BKN008 OVC030
FM220900 14010KT 6SM -RA OVC012
TEMPO 2209/2212 21/2SM -RA BR OVC007 RMK NXT FCST BY 220600Z
No reported NOTAMs for that airfield.



MET'MAP, your aeronautical weather chart ! - Copyright ORBIFLY December 2007 - Disclaimer

ORBIFLY MET'MAP TEAM :

Programming & Development : Alexandra Zaïnal
Concept & Development : Baudouin d'Aumeries
Co-Development & Prog : Marc-Olivier Méhu
Technical & hardware support : Manuel Goepfert

Contact : metmap@orbifly.com




SOURCES & CREDITS :

   NOAA